Time;durP1;ratioP1;P1;durP2;ratioP2;P2;SDS_P1;SDS_P2;PMS_P1;PMS_P2;Temp;Humidity;BMP_temperature;BMP_pressure;BME280_temperature;BME280_humidity;BME280_pressure;Samples;Min_cycle;Max_cycle;Signal;HPM_P1;HPM_P2
2022/01/11 00:01:19;;;;;;;18.38;12.05;;;;;;;5.65;63.57;102979.09;5064744;28;20160;-70
2022/01/11 00:03:48;;;;;;;20.15;13.52;;;;;;;5.65;63.65;102984.44;5065157;28;20110;-69
2022/01/11 00:06:27;;;;;;;16.55;11.38;;;;;;;5.65;63.78;102989.75;5064842;28;20471;-70
2022/01/11 00:09:00;;;;;;;16.70;10.77;;;;;;;5.65;63.93;102992.44;5061067;28;20081;-70
2022/01/11 00:11:28;;;;;;;16.52;11.77;;;;;;;5.66;63.80;102996.78;5064421;28;20478;-70
2022/01/11 00:13:57;;;;;;;17.67;11.50;;;;;;;5.64;63.77;103006.75;5064196;28;20076;-69
2022/01/11 00:16:25;;;;;;;18.67;11.88;;;;;;;5.65;63.55;103011.09;5064904;28;20056;-70
2022/01/11 00:18:53;;;;;;;22.20;13.40;;;;;;;5.65;63.59;103018.25;5064804;28;20148;-70
2022/01/11 00:21:21;;;;;;;20.63;13.77;;;;;;;5.64;63.97;103016.56;5063992;28;20049;-69
2022/01/11 00:26:35;;;;;;;18.23;11.55;;;;;;;5.66;63.33;103026.13;5064405;28;20084;-70
2022/01/11 00:29:04;;;;;;;20.27;12.45;;;;;;;5.64;63.61;103022.75;5050505;28;20080;-70
2022/01/11 00:31:31;;;;;;;19.35;13.10;;;;;;;5.64;63.54;103020.09;5064913;28;20052;-70
2022/01/11 00:34:01;;;;;;;19.55;12.30;;;;;;;5.65;63.85;103026.25;5064809;28;20083;-70
2022/01/11 00:36:40;;;;;;;18.73;12.32;;;;;;;5.64;63.98;103025.41;5063887;28;20053;-69
2022/01/11 00:39:08;;;;;;;19.10;12.68;;;;;;;5.62;63.90;103016.72;5056847;28;20056;-69
2022/01/11 00:41:38;;;;;;;19.00;12.00;;;;;;;5.63;63.73;103012.22;5064235;28;20079;-70
2022/01/11 00:44:08;;;;;;;21.17;12.85;;;;;;;5.62;63.81;103010.53;5063746;28;20052;-69
2022/01/11 00:46:38;;;;;;;22.70;13.93;;;;;;;5.58;63.76;103009.97;5057576;28;20056;-69
2022/01/11 00:49:06;;;;;;;20.45;13.27;;;;;;;5.59;64.09;103005.47;5064370;28;20227;-69
2022/01/11 00:51:34;;;;;;;20.05;12.65;;;;;;;5.60;64.10;103004.50;5063532;28;20041;-68
2022/01/11 00:54:02;;;;;;;22.98;13.40;;;;;;;5.60;63.91;103010.66;5063807;28;20060;-69
2022/01/11 00:56:29;;;;;;;25.63;15.90;;;;;;;5.59;63.71;103002.81;5060030;28;20045;-69
2022/01/11 00:58:57;;;;;;;21.13;12.63;;;;;;;5.60;63.71;103009.81;5062899;28;20475;-69
2022/01/11 01:01:27;;;;;;;24.10;13.15;;;;;;;5.56;63.99;103017.25;5063603;28;20049;-70
2022/01/11 01:03:55;;;;;;;24.42;13.95;;;;;;;5.55;64.14;103013.75;5063830;28;20183;-69
2022/01/11 01:06:23;;;;;;;23.15;13.40;;;;;;;5.54;63.79;102998.72;5063472;28;20364;-70
2022/01/11 01:08:51;;;;;;;21.90;13.38;;;;;;;5.56;64.19;103001.25;5063413;28;20044;-70
2022/01/11 01:11:18;;;;;;;24.83;14.63;;;;;;;5.56;63.62;103009.25;5063636;28;20049;-70
2022/01/11 01:13:46;;;;;;;24.35;14.15;;;;;;;5.54;63.82;103013.88;5062982;28;20076;-70
2022/01/11 01:16:14;;;;;;;21.92;14.35;;;;;;;5.54;64.05;103017.38;5063269;28;20091;-70
2022/01/11 01:18:43;;;;;;;22.95;14.48;;;;;;;5.55;63.88;103018.22;5063685;28;20401;-70
2022/01/11 01:21:11;;;;;;;25.30;14.55;;;;;;;5.56;64.15;103017.25;5063122;28;20533;-70
2022/01/11 01:23:39;;;;;;;25.50;14.90;;;;;;;5.55;64.10;103024.41;5062383;28;20049;-70
2022/01/11 01:26:07;;;;;;;23.38;14.45;;;;;;;5.54;64.18;103022.72;5063115;28;20079;-70
2022/01/11 01:28:34;;;;;;;24.95;14.85;;;;;;;5.54;64.14;103027.22;5056462;28;20045;-69
2022/01/11 01:31:02;;;;;;;24.88;14.38;;;;;;;5.52;64.05;103023.84;5061517;28;20044;-70
2022/01/11 01:33:32;;;;;;;24.80;15.02;;;;;;;5.50;64.28;103031.97;5064065;28;20100;-70
2022/01/11 01:36:04;;;;;;;25.25;14.82;;;;;;;5.51;63.97;103031.00;5062689;28;20056;-70
2022/01/11 01:38:33;;;;;;;25.00;14.25;;;;;;;5.50;64.12;103037.31;5063069;28;20045;-71
2022/01/11 01:41:09;;;;;;;25.52;14.80;;;;;;;5.51;64.04;103028.31;5062581;28;20443;-70
2022/01/11 01:43:37;;;;;;;24.80;13.90;;;;;;;5.52;63.75;103031.84;5062738;28;20084;-70
2022/01/11 01:46:05;;;;;;;25.25;14.88;;;;;;;5.51;63.79;103032.81;5062790;28;20299;-70
2022/01/11 01:48:35;;;;;;;24.65;14.32;;;;;;;5.47;64.21;103026.91;5059547;28;20113;-70
2022/01/11 01:51:05;;;;;;;27.63;15.05;;;;;;;5.48;64.28;103035.75;5058842;28;20049;-69
2022/01/11 01:53:34;;;;;;;24.63;14.82;;;;;;;5.46;64.26;103030.56;5057012;28;20037;-69
2022/01/11 01:56:03;;;;;;;24.75;13.77;;;;;;;5.46;64.06;103033.22;5061376;28;20072;-70
2022/01/11 01:58:31;;;;;;;25.38;14.82;;;;;;;5.46;63.85;103029.72;5061633;28;20116;-69
2022/01/11 02:01:03;;;;;;;23.58;14.52;;;;;;;5.46;64.04;103025.22;5056928;28;20046;-70
2022/01/11 02:03:37;;;;;;;25.52;14.95;;;;;;;5.49;64.04;103029.44;5061462;28;20048;-70
2022/01/11 02:06:08;;;;;;;23.52;14.38;;;;;;;5.47;64.09;103037.56;5057968;28;20045;-70
2022/01/11 02:08:37;;;;;;;24.27;14.23;;;;;;;5.45;64.26;103039.53;5060829;28;20118;-70
2022/01/11 02:11:06;;;;;;;26.25;14.80;;;;;;;5.47;63.76;103042.06;5059019;28;20060;-68
2022/01/11 02:13:34;;;;;;;23.95;13.60;;;;;;;5.42;63.90;103044.28;5062869;28;20073;-68
2022/01/11 02:16:03;;;;;;;23.92;14.07;;;;;;;5.36;64.35;103043.00;5050619;28;20502;-68
2022/01/11 02:18:31;;;;;;;26.38;15.35;;;;;;;5.39;64.26;103045.41;5053205;28;20050;-68
2022/01/11 02:21:01;;;;;;;24.05;14.23;;;;;;;5.39;64.12;103049.88;5062074;28;20045;-67
2022/01/11 02:23:30;;;;;;;24.17;14.25;;;;;;;5.32;63.67;103036.25;5061554;28;20045;-68
2022/01/11 02:25:58;;;;;;;23.70;14.50;;;;;;;5.38;63.90;103050.88;5060861;28;20057;-67
2022/01/11 02:28:28;;;;;;;26.30;15.05;;;;;;;5.39;63.98;103041.88;5057959;28;20069;-68
2022/01/11 02:30:58;;;;;;;25.45;13.80;;;;;;;5.38;64.06;103051.72;5062518;28;20049;-67
2022/01/11 02:33:35;;;;;;;23.88;13.43;;;;;;;5.39;63.86;103052.56;5063041;28;20152;-68
2022/01/11 02:36:07;;;;;;;22.65;13.30;;;;;;;5.42;63.78;103058.47;5061882;28;20053;-68
2022/01/11 02:38:35;;;;;;;25.75;15.90;;;;;;;5.42;63.99;103065.63;5056244;28;20403;-67
2022/01/11 02:41:04;;;;;;;24.15;14.35;;;;;;;5.40;64.08;103059.56;5049118;28;20076;-68
2022/01/11 02:43:32;;;;;;;24.75;14.70;;;;;;;5.42;63.95;103069.13;5057968;28;20068;-67
2022/01/11 02:46:01;;;;;;;23.13;14.85;;;;;;;5.35;63.76;103061.78;5066386;28;20055;-68
2022/01/11 02:48:30;;;;;;;23.67;14.77;;;;;;;5.43;63.54;103075.31;5066568;28;20052;-68
2022/01/11 02:50:58;;;;;;;24.95;13.98;;;;;;;5.39;63.96;103085.41;5066447;28;20145;-67
2022/01/11 02:53:27;;;;;;;24.52;14.30;;;;;;;5.40;63.65;103083.56;5066261;28;20044;-68
2022/01/11 02:55:55;;;;;;;25.08;14.82;;;;;;;5.40;63.88;103081.75;5054742;28;20049;-67
2022/01/11 02:58:23;;;;;;;24.10;14.65;;;;;;;5.42;64.09;103084.28;5065826;28;20087;-68
2022/01/11 03:00:51;;;;;;;27.20;14.93;;;;;;;5.42;63.92;103081.63;5065474;28;20052;-68
2022/01/11 03:03:22;;;;;;;25.17;15.45;;;;;;;5.39;63.56;103072.06;5065944;28;20040;-67
2022/01/11 03:05:54;;;;;;;24.45;14.60;;;;;;;5.43;63.65;103078.81;5066182;28;20045;-67
2022/01/11 03:08:23;;;;;;;26.67;14.52;;;;;;;5.38;63.63;103088.19;5066334;28;20416;-68
2022/01/11 03:10:53;;;;;;;23.85;13.93;;;;;;;5.38;63.79;103093.53;5065369;28;20137;-67
2022/01/11 03:13:21;;;;;;;30.13;15.35;;;;;;;5.38;64.01;103090.88;5066621;28;20069;-68
2022/01/11 03:15:50;;;;;;;28.63;14.88;;;;;;;5.34;63.86;103084.94;5064963;28;20064;-68
2022/01/11 03:18:17;;;;;;;23.65;14.30;;;;;;;5.36;63.49;103087.47;5066473;28;20103;-67
2022/01/11 03:20:47;;;;;;;27.42;15.65;;;;;;;5.34;63.68;103084.94;5065682;28;20056;-68
2022/01/11 03:23:16;;;;;;;27.83;15.77;;;;;;;5.33;63.69;103082.41;5065222;28;20069;-68
2022/01/11 03:25:44;;;;;;;24.27;14.70;;;;;;;5.31;63.96;103081.72;5062607;28;20041;-67
2022/01/11 03:28:14;;;;;;;23.38;13.57;;;;;;;5.27;63.68;103070.47;5065920;28;20055;-68
2022/01/11 03:30:41;;;;;;;25.60;13.93;;;;;;;5.30;63.52;103090.69;5054090;28;20049;-68
2022/01/11 03:33:09;;;;;;;23.38;14.30;;;;;;;5.31;63.44;103085.22;5065740;28;20053;-68
2022/01/11 03:35:37;;;;;;;26.63;14.98;;;;;;;5.32;63.50;103086.06;5065042;28;20382;-68
2022/01/11 03:38:07;;;;;;;23.52;14.13;;;;;;;5.30;63.86;103080.00;5065092;28;20367;-68
2022/01/11 03:40:36;;;;;;;24.58;14.60;;;;;;;5.30;63.59;103080.00;5064712;28;20083;-67
2022/01/11 03:43:04;;;;;;;24.83;14.77;;;;;;;5.27;63.78;103070.47;5065589;28;20238;-67
2022/01/11 03:45:33;;;;;;;24.88;14.50;;;;;;;5.27;63.79;103070.47;5064591;28;20061;-67
2022/01/11 03:48:04;;;;;;;22.98;14.15;;;;;;;5.25;63.69;103069.75;5065180;28;20095;-67
2022/01/11 03:50:32;;;;;;;24.38;14.00;;;;;;;5.25;64.10;103067.09;5064928;28;20467;-67
2022/01/11 03:53:09;;;;;;;24.45;14.07;;;;;;;5.26;63.99;103075.94;5064918;28;20707;-67
2022/01/11 03:55:47;;;;;;;23.40;14.25;;;;;;;5.23;63.72;103083.22;5063297;28;20087;-67
2022/01/11 03:58:16;;;;;;;24.92;14.77;;;;;;;5.26;63.98;103073.25;5065420;28;20041;-68
2022/01/11 04:00:45;;;;;;;25.08;14.50;;;;;;;5.23;63.77;103085.88;5064156;28;20045;-68
2022/01/11 04:03:13;;;;;;;25.80;15.02;;;;;;;5.23;63.67;103082.38;5064890;28;20130;-68
2022/01/11 04:05:42;;;;;;;22.95;13.98;;;;;;;5.21;64.15;103090.50;5064894;28;20075;-68
2022/01/11 04:08:11;;;;;;;23.20;14.63;;;;;;;5.21;63.93;103095.81;5064511;28;20076;-68
2022/01/11 04:10:39;;;;;;;23.77;13.40;;;;;;;5.20;64.15;103096.81;5062723;28;20564;-68
2022/01/11 04:13:07;;;;;;;24.65;14.40;;;;;;;5.18;64.11;103089.94;5064685;28;20068;-68
2022/01/11 04:15:35;;;;;;;24.83;14.10;;;;;;;5.21;63.89;103100.31;5063259;28;20704;-67
2022/01/11 04:18:05;;;;;;;22.92;14.18;;;;;;;5.21;63.53;103094.97;5064922;28;20053;-67
2022/01/11 04:20:33;;;;;;;24.05;14.20;;;;;;;5.19;64.10;103096.97;5064410;28;20049;-67
2022/01/11 04:23:01;;;;;;;24.83;14.75;;;;;;;5.19;63.49;103096.97;5063869;28;20080;-67
2022/01/11 04:25:28;;;;;;;24.50;14.63;;;;;;;5.18;64.00;103103.28;5062729;28;20060;-68
2022/01/11 04:27:57;;;;;;;29.60;14.50;;;;;;;5.20;63.92;103104.78;5064553;28;20067;-68
2022/01/11 04:30:25;;;;;;;23.90;14.38;;;;;;;5.18;63.51;103106.78;5063406;28;20045;-68
2022/01/11 04:32:53;;;;;;;22.35;13.75;;;;;;;5.16;64.04;103100.75;5064913;28;20063;-68
2022/01/11 04:35:22;;;;;;;23.45;14.77;;;;;;;5.15;63.96;103091.06;5063916;28;20041;-67
2022/01/11 04:37:50;;;;;;;22.88;15.60;;;;;;;5.16;64.04;103094.56;5063507;28;20052;-68
2022/01/11 04:40:18;;;;;;;26.77;14.23;;;;;;;5.14;63.48;103107.19;5063021;28;20080;-68
2022/01/11 04:42:46;;;;;;;26.42;15.32;;;;;;;5.16;63.73;103115.88;5064608;28;20346;-68
2022/01/11 04:45:15;;;;;;;23.63;14.85;;;;;;;5.13;63.66;103110.81;5063256;28;20080;-68
2022/01/11 04:47:44;;;;;;;25.67;14.75;;;;;;;5.13;63.49;103108.16;5063620;28;20057;-68
2022/01/11 04:50:12;;;;;;;23.98;14.60;;;;;;;5.14;63.38;103116.00;5063617;28;20060;-68
2022/01/11 04:52:41;;;;;;;24.95;15.18;;;;;;;5.11;63.87;103108.28;5063418;28;20052;-68
2022/01/11 04:55:10;;;;;;;27.10;14.98;;;;;;;5.13;63.67;103119.66;5063799;28;20045;-68
2022/01/11 04:57:44;;;;;;;26.30;15.00;;;;;;;5.10;63.65;103119.06;5059096;28;20049;-68
2022/01/11 05:00:13;;;;;;;26.02;14.48;;;;;;;5.12;63.96;103109.97;5062722;28;20091;-68
2022/01/11 05:02:41;;;;;;;26.95;14.80;;;;;;;5.09;63.56;103104.91;5063359;28;20074;-68
2022/01/11 05:05:10;;;;;;;24.95;15.27;;;;;;;5.10;63.56;103105.75;5062439;28;20040;-68
2022/01/11 05:07:43;;;;;;;24.38;15.10;;;;;;;5.08;63.62;103097.88;5063379;28;20049;-68
2022/01/11 05:10:11;;;;;;;25.40;14.75;;;;;;;5.08;63.79;103100.53;5062369;28;20041;-67
2022/01/11 05:12:39;;;;;;;29.55;16.88;;;;;;;5.00;63.93;103088.84;5063269;28;20076;-68
2022/01/11 05:15:08;;;;;;;26.50;15.75;;;;;;;5.06;63.71;103097.16;5062814;28;20045;-68
2022/01/11 05:17:36;;;;;;;30.25;17.50;;;;;;;5.11;63.24;103105.63;5063618;28;20041;-68
2022/01/11 05:20:06;;;;;;;29.02;16.55;;;;;;;5.10;63.38;103100.41;5063712;28;20168;-68
2022/01/11 05:22:34;;;;;;;27.80;16.35;;;;;;;5.09;63.43;103090.72;5055109;28;20466;-68
2022/01/11 05:25:04;;;;;;;29.73;16.05;;;;;;;5.06;63.26;103085.66;5056979;28;20044;-68
2022/01/11 05:27:32;;;;;;;30.50;17.27;;;;;;;5.08;63.75;103083.72;5063642;28;20048;-68
2022/01/11 05:29:59;;;;;;;27.88;16.65;;;;;;;5.09;63.29;103093.41;5062457;28;20076;-68
2022/01/11 05:32:27;;;;;;;31.45;16.92;;;;;;;5.06;63.09;103089.16;5061044;28;20067;-67
2022/01/11 05:34:55;;;;;;;30.42;17.00;;;;;;;5.08;63.13;103089.88;5062860;28;20418;-67
2022/01/11 05:37:22;;;;;;;31.50;16.92;;;;;;;5.06;63.28;103086.50;5051048;28;20091;-67
2022/01/11 05:39:53;;;;;;;28.83;17.25;;;;;;;5.07;63.07;103084.69;5062614;28;20351;-67
2022/01/11 05:42:24;;;;;;;30.20;17.20;;;;;;;5.06;63.25;103080.34;5062475;28;20504;-67
2022/01/11 05:44:52;;;;;;;28.88;16.50;;;;;;;5.07;63.46;103088.19;5061251;28;20110;-68
2022/01/11 05:47:20;;;;;;;28.70;15.25;;;;;;;5.05;63.49;103090.16;5062887;28;20057;-68
2022/01/11 05:49:48;;;;;;;25.23;15.15;;;;;;;4.96;63.11;103079.41;5063058;28;20052;-67
2022/01/11 05:52:16;;;;;;;27.67;16.55;;;;;;;5.00;63.12;103088.84;5063039;28;20049;-71
2022/01/11 05:54:43;;;;;;;25.33;15.32;;;;;;;5.04;63.16;103100.94;5062947;28;20083;-69
2022/01/11 05:57:11;;;;;;;26.55;16.30;;;;;;;5.04;63.56;103104.44;5063426;28;20052;-67
2022/01/11 05:59:40;;;;;;;28.08;16.55;;;;;;;5.03;63.54;103116.09;5062082;28;20084;-67
2022/01/11 06:02:08;;;;;;;29.75;16.45;;;;;;;5.03;63.48;103118.75;5062441;28;20049;-67
2022/01/11 06:04:36;;;;;;;25.70;15.43;;;;;;;5.03;63.04;103118.75;5063056;28;20049;-67
2022/01/11 06:07:04;;;;;;;30.48;16.52;;;;;;;5.00;63.15;103115.50;5062927;28;20470;-67
2022/01/11 06:09:31;;;;;;;24.48;15.18;;;;;;;5.01;63.21;103123.38;5061564;28;20068;-67
2022/01/11 06:11:59;;;;;;;30.45;16.30;;;;;;;4.98;63.06;103117.44;5063184;28;20056;-67
2022/01/11 06:14:27;;;;;;;30.85;17.48;;;;;;;4.99;63.25;103121.81;5061750;28;20052;-65
2022/01/11 06:16:56;;;;;;;29.30;15.82;;;;;;;4.99;63.43;103132.47;5062507;28;20537;-65
2022/01/11 06:19:28;;;;;;;31.08;16.33;;;;;;;4.96;63.18;103128.22;5066947;28;20057;-67
2022/01/11 06:21:56;;;;;;;29.67;17.13;;;;;;;4.99;63.52;103140.44;5066960;28;20053;-68
2022/01/11 06:24:24;;;;;;;28.40;15.70;;;;;;;4.98;62.77;103147.59;5065746;28;20052;-69
2022/01/11 06:26:51;;;;;;;24.42;15.45;;;;;;;4.97;62.98;103153.06;5063255;28;20052;-69
2022/01/11 06:29:19;;;;;;;29.23;16.50;;;;;;;4.95;63.12;103155.84;5066382;28;20064;-70
2022/01/11 06:31:47;;;;;;;29.98;15.98;;;;;;;4.94;63.06;103159.50;5066314;28;20045;-68
2022/01/11 06:34:16;;;;;;;26.55;16.05;;;;;;;4.95;63.47;103166.50;5067534;28;20094;-68
2022/01/11 06:36:44;;;;;;;32.20;17.55;;;;;;;4.95;63.25;103163.00;5066604;28;20060;-71
2022/01/11 06:39:12;;;;;;;30.13;16.80;;;;;;;4.93;62.96;103168.47;5065648;28;20577;-64
2022/01/11 06:41:39;;;;;;;30.20;16.60;;;;;;;4.92;62.64;103176.56;4362101;28;10000686;-69
2022/01/11 06:44:07;;;;;;;28.40;16.60;;;;;;;4.91;63.06;103175.72;5059835;28;20040;-69
2022/01/11 06:46:35;;;;;;;29.88;17.38;;;;;;;4.89;63.07;103175.00;5072545;28;20053;-70
2022/01/11 06:49:04;;;;;;;29.15;16.60;;;;;;;4.87;63.57;103163.63;5063511;28;20056;-69
2022/01/11 06:51:33;;;;;;;32.28;17.23;;;;;;;4.87;63.32;103177.81;5063210;28;20045;-69
2022/01/11 06:54:01;;;;;;;31.98;17.70;;;;;;;4.89;62.70;103180.34;5061369;28;20084;-69
2022/01/11 06:56:28;;;;;;;29.80;16.95;;;;;;;4.88;63.23;103176.00;5060124;28;20324;-68
2022/01/11 06:58:56;;;;;;;29.13;16.67;;;;;;;4.86;63.04;103178.78;5058854;28;20068;-67
2022/01/11 07:01:24;;;;;;;31.33;17.02;;;;;;;4.87;63.02;103183.13;5062349;28;20076;-67
2022/01/11 07:03:52;;;;;;;27.92;16.63;;;;;;;4.86;63.36;103181.44;5061144;28;20055;-67
2022/01/11 07:06:20;;;;;;;25.92;16.30;;;;;;;4.84;63.42;103178.06;5061671;28;20588;-67
2022/01/11 07:08:49;;;;;;;30.88;17.55;;;;;;;4.87;63.19;103179.63;5061548;28;20482;-67
2022/01/11 07:11:18;;;;;;;25.48;15.73;;;;;;;4.78;62.92;103167.91;4711204;28;9999692;-69
2022/01/11 07:13:46;;;;;;;32.60;18.48;;;;;;;4.76;62.37;103177.84;5054166;28;20045;-67
2022/01/11 07:16:14;;;;;;;32.85;18.13;;;;;;;4.72;62.71;103189.72;5064064;28;20063;-67
2022/01/11 07:18:44;;;;;;;33.90;18.45;;;;;;;4.75;63.04;103191.28;5065526;28;20056;-67
2022/01/11 07:21:12;;;;;;;29.05;17.42;;;;;;;4.78;63.39;103194.56;5065414;28;20052;-67
2022/01/11 07:23:40;;;;;;;32.85;17.63;;;;;;;4.81;63.26;103196.97;5064217;28;20136;-66
2022/01/11 07:26:09;;;;;;;29.60;17.60;;;;;;;4.80;63.20;103200.59;5064890;28;20097;-67
2022/01/11 07:28:37;;;;;;;33.85;18.27;;;;;;;4.70;61.84;103206.81;5064747;28;20107;-67
2022/01/11 07:31:05;;;;;;;35.95;17.63;;;;;;;4.64;63.28;103208.16;5065797;28;20435;-67
2022/01/11 07:33:33;;;;;;;32.45;17.52;;;;;;;4.69;63.09;103207.78;5065826;28;20054;-65
2022/01/11 07:36:01;;;;;;;33.38;17.88;;;;;;;4.72;63.26;103210.19;5065275;28;20044;-66
2022/01/11 07:38:28;;;;;;;30.27;16.67;;;;;;;4.73;63.09;103217.22;5055700;28;20072;-66
2022/01/11 07:40:56;;;;;;;30.15;16.77;;;;;;;4.74;63.23;103230.41;5062917;28;20463;-65
2022/01/11 07:43:25;;;;;;;33.35;17.85;;;;;;;4.77;63.18;103223.97;5064063;28;20076;-66
2022/01/11 07:45:53;;;;;;;29.17;16.95;;;;;;;4.75;63.00;103226.78;5060273;28;20460;-66
2022/01/11 07:48:21;;;;;;;30.05;17.25;;;;;;;4.74;63.62;103229.56;5050687;28;20064;-66
2022/01/11 07:50:49;;;;;;;33.72;17.30;;;;;;;4.75;63.30;103228.59;5063598;28;20436;-65
2022/01/11 07:53:17;;;;;;;29.17;16.63;;;;;;;4.73;62.82;103231.38;5056027;28;20099;-66
2022/01/11 07:55:44;;;;;;;29.63;17.45;;;;;;;4.76;63.27;103230.28;5055214;28;20105;-67
2022/01/11 07:58:12;;;;;;;31.55;16.80;;;;;;;4.79;62.82;103230.03;5063470;28;20056;-69
2022/01/11 08:00:42;;;;;;;29.77;17.00;;;;;;;4.77;62.83;103229.31;5061000;28;20069;-66
2022/01/11 08:03:10;;;;;;;31.15;16.52;;;;;;;4.76;62.99;103220.47;5066220;28;20072;-66
2022/01/11 08:05:38;;;;;;;32.35;16.27;;;;;;;4.75;62.99;103231.25;5067701;28;20073;-66
2022/01/11 08:08:06;;;;;;;29.05;15.13;;;;;;;4.78;63.24;103231.00;5062647;28;20056;-66
2022/01/11 08:10:34;;;;;;;29.30;16.80;;;;;;;4.77;62.69;103231.97;5062733;28;20100;-66
2022/01/11 08:13:05;;;;;;;30.73;15.32;;;;;;;4.78;62.97;103236.31;5059769;28;20053;-66
2022/01/11 08:15:33;;;;;;;30.40;16.98;;;;;;;4.82;63.41;103240.44;5056977;28;20044;-66
2022/01/11 08:18:04;;;;;;;27.25;15.98;;;;;;;4.79;63.28;103232.69;5058363;28;20049;-67
2022/01/11 08:20:32;;;;;;;26.65;15.52;;;;;;;4.74;62.91;103226.91;5053619;28;20065;-66
2022/01/11 08:22:59;;;;;;;28.38;14.98;;;;;;;4.79;63.47;103238.88;5057584;28;20067;-65
2022/01/11 08:25:27;;;;;;;27.02;15.20;;;;;;;4.80;63.32;103235.22;5061667;28;20048;-65
2022/01/11 08:27:56;;;;;;;28.25;15.35;;;;;;;4.81;63.10;103233.41;5055973;28;20084;-65
2022/01/11 08:30:24;;;;;;;27.17;14.23;;;;;;;4.81;63.36;103234.25;5061931;28;20399;-66
2022/01/11 08:32:51;;;;;;;28.10;15.55;;;;;;;4.80;63.35;103231.72;5063085;28;20044;-66
2022/01/11 08:35:20;;;;;;;27.20;15.57;;;;;;;4.78;63.21;103242.50;5060021;28;20112;-66
2022/01/11 08:37:48;;;;;;;25.55;14.18;;;;;;;4.82;62.94;103238.63;5062206;28;20395;-66
2022/01/11 08:40:16;;;;;;;27.80;13.85;;;;;;;4.82;63.10;103237.78;5060700;28;20045;-66
2022/01/11 08:42:44;;;;;;;28.30;13.88;;;;;;;4.81;63.46;103241.41;5062828;28;20068;-66
2022/01/11 08:45:12;;;;;;;23.67;14.50;;;;;;;4.81;63.13;103228.94;5061813;28;20077;-65
2022/01/11 08:47:40;;;;;;;24.52;13.57;;;;;;;4.84;63.08;103236.69;5062355;28;20076;-66
2022/01/11 08:50:11;;;;;;;22.67;13.50;;;;;;;4.98;62.56;103229.38;5061727;28;20088;-66
2022/01/11 08:52:42;;;;;;;20.58;12.65;;;;;;;5.11;62.73;103228.22;5061982;28;20068;-66
2022/01/11 08:55:12;;;;;;;26.75;13.75;;;;;;;5.30;62.11;103230.16;5056111;28;20179;-66
2022/01/11 08:57:39;;;;;;;20.33;11.95;;;;;;;5.47;61.80;103234.06;5062765;28;20052;-66
2022/01/11 09:00:16;;;;;;;21.08;11.95;;;;;;;5.57;61.05;103227.00;5061473;28;20084;-67
2022/01/11 09:02:45;;;;;;;22.05;12.48;;;;;;;5.78;60.21;103222.47;5061859;28;20163;-66
2022/01/11 09:05:13;;;;;;;19.95;12.43;;;;;;;5.95;60.17;103233.56;5061916;28;20052;-67
2022/01/11 09:07:42;;;;;;;23.70;12.48;;;;;;;6.09;59.57;103234.03;5061154;28;20060;-66
2022/01/11 09:10:11;;;;;;;21.10;12.23;;;;;;;6.24;58.92;103239.03;5060807;28;20068;-67
2022/01/11 09:12:39;;;;;;;19.83;11.95;;;;;;;6.39;58.92;103251.03;5053603;28;20410;-66
2022/01/11 09:15:09;;;;;;;20.70;11.57;;;;;;;6.51;58.17;103250.78;5060086;28;20052;-66
2022/01/11 09:17:37;;;;;;;20.40;11.38;;;;;;;6.59;58.03;103250.09;5061861;28;20041;-66
2022/01/11 09:20:08;;;;;;;19.60;11.32;;;;;;;6.58;58.05;103248.41;5053681;28;20041;-66
2022/01/11 09:22:36;;;;;;;22.40;12.15;;;;;;;6.61;57.93;103255.31;5061659;28;20129;-66
2022/01/11 09:25:05;;;;;;;21.65;12.45;;;;;;;6.66;57.98;103251.25;5061817;28;20117;-66
2022/01/11 09:27:33;;;;;;;21.45;11.30;;;;;;;6.67;57.94;103252.09;5056125;28;20077;-66
2022/01/11 09:30:02;;;;;;;17.60;10.60;;;;;;;6.72;57.57;103256.03;5060828;28;20495;-65
2022/01/11 09:32:30;;;;;;;20.90;11.93;;;;;;;6.77;57.73;103263.66;5061462;28;20069;-66
2022/01/11 09:34:58;;;;;;;18.33;10.82;;;;;;;6.73;57.71;103271.09;5061427;28;20140;-65
2022/01/11 09:37:26;;;;;;;17.77;10.77;;;;;;;6.76;57.74;103265.47;5060578;28;20060;-66
2022/01/11 09:39:54;;;;;;;20.33;11.63;;;;;;;6.76;57.92;103270.81;5060845;28;20094;-66
2022/01/11 09:42:24;;;;;;;15.98;10.60;;;;;;;6.76;57.95;103264.63;5052748;28;20068;-66
2022/01/11 09:44:52;;;;;;;17.83;10.63;;;;;;;6.77;57.99;103267.16;5049403;28;20045;-65
2022/01/11 09:47:20;;;;;;;18.23;10.80;;;;;;;6.77;57.95;103253.81;5058380;28;20042;-65
2022/01/11 09:49:48;;;;;;;17.45;10.07;;;;;;;6.87;57.81;103269.84;5060351;28;20049;-65
2022/01/11 09:52:15;;;;;;;18.05;10.85;;;;;;;6.81;57.79;103273.94;5054284;28;20045;-65
2022/01/11 09:54:47;;;;;;;15.02;9.07;;;;;;;6.67;59.05;103268.97;5060513;28;20052;-65
2022/01/11 09:57:15;;;;;;;16.17;10.23;;;;;;;6.52;59.04;103271.19;5059996;28;20045;-66
2022/01/11 09:59:44;;;;;;;16.35;9.45;;;;;;;6.36;59.76;103275.34;5060580;28;20059;-65
2022/01/11 10:02:13;;;;;;;18.15;10.70;;;;;;;6.22;60.01;103270.34;5061177;28;20099;-65
2022/01/11 10:04:41;;;;;;;17.45;9.50;;;;;;;6.09;60.78;103276.75;5059290;28;20055;-66
2022/01/11 10:07:11;;;;;;;15.45;9.48;;;;;;;6.01;61.10;103275.72;5060629;28;20056;-65
2022/01/11 10:09:44;;;;;;;16.48;9.57;;;;;;;5.94;61.84;103274.56;5051970;28;20085;-65
2022/01/11 10:12:13;;;;;;;18.67;10.40;;;;;;;5.89;61.83;103280.28;5060569;28;20045;-65
2022/01/11 10:14:48;;;;;;;18.08;9.70;;;;;;;5.85;61.93;103287.69;5058773;28;20045;-65
2022/01/11 10:17:19;;;;;;;16.42;9.20;;;;;;;5.79;61.95;103284.69;5053742;28;20049;-64
2022/01/11 10:19:48;;;;;;;14.65;8.57;;;;;;;5.74;62.41;103290.44;5060360;28;20048;-66
2022/01/11 10:22:18;;;;;;;14.80;8.65;;;;;;;5.74;62.16;103286.91;5050686;28;20084;-66
2022/01/11 10:24:47;;;;;;;15.20;9.63;;;;;;;5.72;62.53;103280.84;5060560;28;20428;-65
2022/01/11 10:27:19;;;;;;;17.13;9.40;;;;;;;5.68;62.50;103276.75;5061057;28;20523;-65
2022/01/11 10:29:49;;;;;;;16.35;8.82;;;;;;;5.68;62.45;103290.09;5055236;28;20041;-66
2022/01/11 10:32:21;;;;;;;13.27;7.95;;;;;;;5.64;62.98;103289.50;5052852;28;20045;-66
2022/01/11 10:34:51;;;;;;;17.20;9.35;;;;;;;5.62;63.02;103294.13;5057963;28;20589;-65
2022/01/11 10:37:32;;;;;;;13.15;8.30;;;;;;;5.62;63.01;103280.78;5060512;28;20044;-65
2022/01/11 10:40:04;;;;;;;13.15;8.23;;;;;;;5.62;63.41;103272.78;5060272;28;20498;-66
2022/01/11 10:42:34;;;;;;;14.27;8.23;;;;;;;5.71;63.15;103274.69;5060541;28;20053;-65
2022/01/11 10:45:06;;;;;;;14.27;8.73;;;;;;;5.91;62.40;103273.00;5049131;28;20493;-66
2022/01/11 10:47:35;;;;;;;15.80;8.93;;;;;;;6.12;62.13;103273.81;5047396;28;20068;-66
2022/01/11 10:50:07;;;;;;;14.68;9.00;;;;;;;6.27;61.37;103281.47;5060874;28;20073;-66
2022/01/11 10:52:35;;;;;;;15.65;8.40;;;;;;;6.43;61.00;103288.03;5056278;28;20083;-66
2022/01/11 10:55:05;;;;;;;14.93;8.77;;;;;;;6.64;60.27;103276.41;5060441;28;20053;-66
2022/01/11 10:57:37;;;;;;;13.27;7.63;;;;;;;6.84;59.50;103280.81;5060425;28;20076;-66
2022/01/11 11:00:14;;;;;;;12.90;8.48;;;;;;;6.96;59.53;103276.19;5043280;28;20041;-66
2022/01/11 11:02:44;;;;;;;14.18;7.78;;;;;;;6.93;59.27;103285.34;5048366;28;20273;-65
2022/01/11 11:05:18;;;;;;;14.90;7.97;;;;;;;6.83;59.81;103285.31;5063089;28;20114;-68
2022/01/11 11:07:55;;;;;;;14.95;8.00;;;;;;;6.66;60.56;103293.16;5064014;28;20041;-68
2022/01/11 11:10:33;;;;;;;12.35;8.27;;;;;;;6.52;60.99;103283.69;5058506;28;20073;-67
2022/01/11 11:13:01;;;;;;;14.15;7.65;;;;;;;6.43;61.60;103289.84;5064606;28;20067;-67
2022/01/11 11:15:33;;;;;;;13.15;7.95;;;;;;;6.35;61.92;103279.84;5063388;28;20052;-67
2022/01/11 11:18:22;;;;;;;13.30;8.35;;;;;;;6.27;62.07;103293.00;5064237;28;20094;-68
2022/01/11 11:20:50;;;;;;;13.57;7.82;;;;;;;6.22;62.47;103289.03;5052920;28;20076;-68
2022/01/11 11:23:19;;;;;;;12.05;7.60;;;;;;;6.19;62.67;103292.81;5064047;28;20064;-68
2022/01/11 11:25:47;;;;;;;11.85;6.88;;;;;;;6.16;62.97;103293.09;5059875;28;20434;-68
2022/01/11 11:28:16;;;;;;;14.98;7.65;;;;;;;6.13;62.81;103288.03;5061773;28;20072;-68